Time;durP1;ratioP1;P1;durP2;ratioP2;P2;SDS_P1;SDS_P2;PMS_P1;PMS_P2;Temp;Humidity;BMP_temperature;BMP_pressure;BME280_temperature;BME280_humidity;BME280_pressure;Samples;Min_cycle;Max_cycle;Signal;HPM_P1;HPM_P2
2022/10/02 00:00:39;;;;;;;2.47;1.90;;;20.20;47.90;;;;;;5051327;28;20049;-10
2022/10/02 00:03:20;;;;;;;2.15;1.50;;;20.20;47.90;;;;;;5051262;28;20057;-10
2022/10/02 00:05:50;;;;;;;2.08;1.52;;;20.20;47.80;;;;;;5051157;28;20060;-10
2022/10/02 00:08:28;;;;;;;1.97;1.43;;;20.20;47.80;;;;;;5051266;28;20114;-10
2022/10/02 00:11:01;;;;;;;2.03;1.60;;;20.20;47.80;;;;;;5049940;28;20049;-10
2022/10/02 00:13:38;;;;;;;1.70;1.48;;;20.20;47.90;;;;;;5049895;28;20053;-10
2022/10/02 00:16:09;;;;;;;1.88;1.70;;;20.20;47.90;;;;;;5051132;28;20057;-10
2022/10/02 00:18:36;;;;;;;2.58;2.00;;;20.10;47.90;;;;;;5051057;28;20049;-10
2022/10/02 00:21:21;;;;;;;2.08;1.40;;;20.20;47.90;;;;;;5050857;28;20068;-10
2022/10/02 00:23:58;;;;;;;3.15;1.60;;;20.10;47.90;;;;;;5051121;28;20084;-10
2022/10/02 00:26:46;;;;;;;2.53;1.58;;;20.10;47.90;;;;;;5033176;28;20105;-10
2022/10/02 00:29:27;;;;;;;1.42;1.33;;;20.10;47.90;;;;;;5032979;28;20059;-10
2022/10/02 00:32:14;;;;;;;3.72;2.30;;;20.20;48.00;;;;;;5051387;28;20053;-10
2022/10/02 00:35:16;;;;;;;2.45;1.75;;;20.10;48.10;;;;;;5051253;28;20053;-10
2022/10/02 00:38:03;;;;;;;1.73;1.50;;;20.10;48.00;;;;;;5050785;28;20090;-10
2022/10/02 00:40:46;;;;;;;2.25;1.60;;;20.10;48.10;;;;;;5050863;28;20458;-10
2022/10/02 00:43:32;;;;;;;2.20;1.65;;;20.10;48.10;;;;;;5050747;28;20047;-10
2022/10/02 00:46:30;;;;;;;1.92;1.48;;;20.10;48.00;;;;;;5047720;28;20060;-10
2022/10/02 00:49:27;;;;;;;2.10;1.67;;;20.10;48.10;;;;;;5050536;28;20060;-10
2022/10/02 00:52:13;;;;;;;2.30;1.52;;;20.10;48.00;;;;;;5050665;28;20053;-11
2022/10/02 00:55:17;;;;;;;2.70;1.63;;;20.10;48.00;;;;;;5051214;28;20052;-10
2022/10/02 00:58:02;;;;;;;2.58;1.65;;;20.10;48.00;;;;;;5050550;28;20056;-10
2022/10/02 01:00:27;;;;;;;3.00;1.70;;;20.10;48.00;;;;;;5050912;28;20049;-10
2022/10/02 01:03:17;;;;;;;2.50;1.77;;;20.10;48.10;;;;;;5050428;28;20057;-10
2022/10/02 01:05:43;;;;;;;2.63;1.77;;;20.10;48.10;;;;;;5050624;28;20513;-11
2022/10/02 01:08:08;;;;;;;2.55;2.10;;;20.10;48.10;;;;;;5050633;28;20041;-10
2022/10/02 01:10:36;;;;;;;2.72;1.75;;;20.10;48.10;;;;;;5050509;28;20070;-10
2022/10/02 01:13:03;;;;;;;2.55;1.80;;;20.10;48.10;;;;;;5050463;28;20044;-10
2022/10/02 01:15:49;;;;;;;2.58;1.80;;;20.00;48.10;;;;;;5050937;28;20425;-10
2022/10/02 01:18:16;;;;;;;1.98;1.50;;;20.00;48.10;;;;;;5050209;28;20550;-10
2022/10/02 01:20:45;;;;;;;2.30;1.77;;;20.10;48.10;;;;;;5049890;28;20506;-10
2022/10/02 01:23:20;;;;;;;2.80;1.80;;;20.10;48.10;;;;;;5050330;28;20403;-10
2022/10/02 01:25:46;;;;;;;2.15;1.60;;;20.10;48.10;;;;;;5050591;28;20060;-10
2022/10/02 01:28:12;;;;;;;2.22;1.80;;;20.00;48.20;;;;;;5050077;28;20055;-10
2022/10/02 01:30:41;;;;;;;2.67;1.60;;;20.00;48.20;;;;;;5050085;28;20144;-10
2022/10/02 01:33:08;;;;;;;2.45;1.65;;;20.00;48.20;;;;;;5050531;28;20057;-10
2022/10/02 01:35:36;;;;;;;2.67;1.70;;;20.00;48.20;;;;;;5050093;28;20109;-10
2022/10/02 01:38:09;;;;;;;1.60;1.40;;;20.00;48.20;;;;;;5050251;28;20097;-11
2022/10/02 01:40:37;;;;;;;2.75;1.80;;;20.00;48.20;;;;;;5050338;28;20517;-10
2022/10/02 01:43:15;;;;;;;2.30;1.60;;;20.00;48.20;;;;;;5050298;28;20502;-10
2022/10/02 01:45:54;;;;;;;3.13;1.52;;;20.00;48.20;;;;;;5050144;28;20056;-10
2022/10/02 01:48:38;;;;;;;2.75;1.80;;;20.00;48.20;;;;;;5049896;28;20052;-10
2022/10/02 01:51:19;;;;;;;1.85;1.52;;;20.00;48.20;;;;;;5050732;28;20466;-10
2022/10/02 01:54:34;;;;;;;2.97;1.98;;;20.00;48.20;;;;;;5050028;28;20053;-10
2022/10/02 01:57:09;;;;;;;2.17;1.52;;;20.00;48.20;;;;;;5050572;28;20045;-10
2022/10/02 01:59:57;;;;;;;3.42;1.50;;;20.00;48.20;;;;;;5049820;28;20099;-10
2022/10/02 02:02:36;;;;;;;3.22;1.85;;;20.00;48.30;;;;;;5049965;28;20041;-10
2022/10/02 02:05:18;;;;;;;2.78;1.80;;;20.00;48.20;;;;;;5050082;28;20111;-10
2022/10/02 02:07:58;;;;;;;2.50;1.70;;;20.00;48.20;;;;;;5049718;28;20037;-10
2022/10/02 02:10:38;;;;;;;2.75;1.90;;;20.00;48.20;;;;;;5050027;28;20140;-10
2022/10/02 02:13:13;;;;;;;1.98;1.48;;;20.00;48.20;;;;;;5049957;28;20052;-10
2022/10/02 02:15:56;;;;;;;3.38;1.95;;;20.00;48.30;;;;;;5049597;28;20045;-10
2022/10/02 02:18:45;;;;;;;2.47;1.80;;;20.00;48.20;;;;;;5049471;28;20056;-10
2022/10/02 02:21:28;;;;;;;2.45;1.75;;;20.00;48.30;;;;;;5049796;28;20061;-10
2022/10/02 02:23:57;;;;;;;2.10;1.42;;;20.00;48.20;;;;;;5049728;28;20045;-10
2022/10/02 02:26:24;;;;;;;2.20;1.90;;;20.00;48.20;;;;;;5049696;28;20119;-10
2022/10/02 02:28:59;;;;;;;2.25;1.63;;;20.00;48.20;;;;;;5048879;28;20494;-10
2022/10/02 02:31:29;;;;;;;2.67;1.80;;;20.00;48.20;;;;;;5049828;28;20080;-10
2022/10/02 02:33:58;;;;;;;2.38;1.63;;;20.00;48.20;;;;;;5051603;28;20052;-10
2022/10/02 02:36:31;;;;;;;3.53;1.77;;;20.00;48.30;;;;;;5052326;28;20504;-10
2022/10/02 02:39:06;;;;;;;3.10;1.90;;;20.00;48.20;;;;;;5052004;28;20065;-10
2022/10/02 02:41:51;;;;;;;3.08;2.03;;;20.00;48.20;;;;;;5052366;28;20053;-10
2022/10/02 02:44:32;;;;;;;2.42;1.48;;;20.00;48.30;;;;;;5052533;28;20398;-10
2022/10/02 02:47:05;;;;;;;1.60;1.13;;;20.00;48.30;;;;;;5052486;28;20061;-10
2022/10/02 02:50:00;;;;;;;2.70;1.92;;;20.00;48.30;;;;;;5052103;28;20053;-10
2022/10/02 02:52:38;;;;;;;2.10;1.50;;;20.00;48.30;;;;;;5052467;28;20061;-10
2022/10/02 02:55:12;;;;;;;2.97;1.73;;;20.00;48.30;;;;;;5052197;28;20474;-10
2022/10/02 02:58:00;;;;;;;2.10;1.50;;;20.00;48.30;;;;;;5051522;28;20056;-10
2022/10/02 03:00:25;;;;;;;1.83;1.40;;;20.00;48.30;;;;;;5052146;28;20088;-10
2022/10/02 03:02:53;;;;;;;2.40;1.75;;;20.00;48.40;;;;;;5052019;28;20081;-10
2022/10/02 03:05:20;;;;;;;2.55;1.90;;;20.00;48.40;;;;;;5051907;28;20147;-10
2022/10/02 03:07:52;;;;;;;2.13;1.42;;;20.00;48.40;;;;;;5051942;28;20056;-10
2022/10/02 03:10:33;;;;;;;3.05;1.75;;;19.90;48.30;;;;;;5051979;28;20064;-10
2022/10/02 03:13:36;;;;;;;3.35;1.77;;;20.00;48.30;;;;;;5052016;28;20056;-10
2022/10/02 03:16:11;;;;;;;2.33;1.70;;;20.00;48.30;;;;;;5051639;28;20065;-10
2022/10/02 03:19:12;;;;;;;2.33;1.80;;;20.00;48.30;;;;;;5051506;28;20056;-10
2022/10/02 03:21:55;;;;;;;1.60;1.33;;;20.00;48.30;;;;;;5052907;28;20052;-10
2022/10/02 03:24:39;;;;;;;2.22;1.63;;;20.00;48.30;;;;;;5051751;28;20137;-10
2022/10/02 03:27:15;;;;;;;2.67;1.80;;;20.00;48.30;;;;;;5051991;28;20144;-10
2022/10/02 03:30:14;;;;;;;2.58;1.65;;;20.00;48.30;;;;;;5051727;28;20049;-10
2022/10/02 03:32:42;;;;;;;2.13;1.38;;;20.00;48.30;;;;;;5051604;28;20049;-10
2022/10/02 03:35:12;;;;;;;2.30;1.90;;;20.00;48.30;;;;;;5051863;28;20431;-10
2022/10/02 03:37:43;;;;;;;2.33;1.67;;;20.00;48.30;;;;;;5051348;28;20049;-11
2022/10/02 03:40:09;;;;;;;2.25;1.90;;;20.00;48.30;;;;;;5033559;28;20057;-10
2022/10/02 03:42:35;;;;;;;2.72;1.67;;;20.00;48.40;;;;;;5051525;28;20057;-10
2022/10/02 03:45:02;;;;;;;3.85;1.73;;;19.90;48.40;;;;;;5051243;28;20049;-10
2022/10/02 03:47:27;;;;;;;3.53;2.00;;;20.00;48.40;;;;;;5051507;28;20139;-10
2022/10/02 03:49:53;;;;;;;2.28;1.77;;;20.00;48.40;;;;;;5051275;28;20144;-11
2022/10/02 03:52:21;;;;;;;2.17;1.60;;;19.90;48.40;;;;;;5051452;28;20105;-10
2022/10/02 03:54:55;;;;;;;2.00;1.42;;;20.00;48.50;;;;;;5051392;28;20053;-10
2022/10/02 03:57:25;;;;;;;2.38;1.95;;;19.90;48.40;;;;;;5051696;28;20097;-10
2022/10/02 04:00:06;;;;;;;2.80;2.00;;;19.90;48.40;;;;;;5051409;28;20068;-11
2022/10/02 04:02:43;;;;;;;2.72;1.63;;;19.90;48.40;;;;;;5051268;28;20501;-10
2022/10/02 04:05:59;;;;;;;2.22;1.60;;;20.00;48.40;;;;;;5051940;28;20059;-10
2022/10/02 04:08:31;;;;;;;2.50;1.77;;;20.00;48.30;;;;;;5060990;28;20057;-10
2022/10/02 04:11:10;;;;;;;2.33;1.63;;;20.00;48.30;;;;;;5051238;28;20061;-10
2022/10/02 04:13:52;;;;;;;2.15;1.60;;;20.00;48.40;;;;;;5050965;28;20105;-10
2022/10/02 04:16:36;;;;;;;2.25;1.40;;;19.90;48.40;;;;;;5050893;28;20052;-10
2022/10/02 04:19:13;;;;;;;2.17;1.50;;;19.90;48.30;;;;;;5031377;28;20053;-10
2022/10/02 04:21:50;;;;;;;2.47;1.77;;;20.00;48.40;;;;;;5050981;28;20049;-10
2022/10/02 04:24:35;;;;;;;3.85;2.03;;;20.00;48.30;;;;;;5051306;28;20057;-10
2022/10/02 04:27:13;;;;;;;1.67;1.50;;;20.00;48.30;;;;;;5051055;28;20490;-10
2022/10/02 04:29:49;;;;;;;1.90;1.30;;;20.00;48.30;;;;;;5051027;28;20045;-11
2022/10/02 04:32:35;;;;;;;3.35;2.13;;;20.00;48.40;;;;;;5050977;28;20072;-10
2022/10/02 04:35:30;;;;;;;2.35;1.60;;;20.00;48.40;;;;;;5050987;28;20048;-10
2022/10/02 04:38:23;;;;;;;2.40;1.60;;;20.00;48.40;;;;;;5050578;28;20105;-10
2022/10/02 04:41:33;;;;;;;2.58;1.60;;;20.00;48.40;;;;;;5050881;28;20550;-10
2022/10/02 04:44:20;;;;;;;2.53;1.65;;;19.90;48.40;;;;;;5050802;28;20049;-10
2022/10/02 04:47:09;;;;;;;3.28;1.80;;;19.90;48.40;;;;;;5050669;28;20126;-10
2022/10/02 04:49:53;;;;;;;3.83;1.95;;;19.90;48.40;;;;;;5060914;28;20105;-10
2022/10/02 04:52:31;;;;;;;2.10;1.60;;;20.00;48.30;;;;;;5050535;28;20053;-10
2022/10/02 04:54:57;;;;;;;2.30;1.50;;;20.00;48.30;;;;;;5050905;28;20052;-10
2022/10/02 04:57:47;;;;;;;2.05;1.63;;;20.00;48.30;;;;;;5050084;28;20045;-10
2022/10/02 05:00:16;;;;;;;1.48;1.38;;;20.00;48.50;;;;;;5050651;28;20071;-10
2022/10/02 05:03:00;;;;;;;2.03;1.52;;;19.90;48.40;;;;;;5050449;28;20083;-10
2022/10/02 05:05:26;;;;;;;1.83;1.38;;;19.90;48.50;;;;;;5050884;28;20097;-10
2022/10/02 05:08:23;;;;;;;2.83;1.80;;;19.90;48.40;;;;;;5050863;28;20048;-10
2022/10/02 05:11:06;;;;;;;2.80;1.50;;;19.90;48.40;;;;;;5050333;28;20518;-11
2022/10/02 05:13:52;;;;;;;2.28;1.55;;;19.90;48.40;;;;;;5051044;28;20049;-10
2022/10/02 05:16:40;;;;;;;1.92;1.58;;;19.90;48.30;;;;;;5050529;28;20502;-10
2022/10/02 05:19:26;;;;;;;3.13;1.80;;;19.90;48.40;;;;;;5050221;28;20379;-10
2022/10/02 05:22:17;;;;;;;2.58;1.67;;;19.90;48.40;;;;;;5050190;28;20501;-10
2022/10/02 05:25:14;;;;;;;2.08;1.40;;;19.90;48.50;;;;;;5050322;28;20117;-10
2022/10/02 05:27:54;;;;;;;3.53;2.00;;;19.90;48.50;;;;;;5050512;28;20082;-10
2022/10/02 05:30:21;;;;;;;1.95;1.35;;;19.90;48.40;;;;;;5050303;28;20087;-10
2022/10/02 05:33:16;;;;;;;1.75;1.40;;;19.90;48.40;;;;;;5050213;28;20052;-10
2022/10/02 05:35:41;;;;;;;2.55;1.58;;;20.00;48.40;;;;;;5050473;28;20048;-10
2022/10/02 05:38:20;;;;;;;2.10;1.63;;;19.90;48.40;;;;;;5050253;28;20053;-10
2022/10/02 05:41:02;;;;;;;1.95;1.63;;;19.90;48.40;;;;;;5050485;28;20414;-10
2022/10/02 05:44:03;;;;;;;1.63;1.40;;;20.00;48.40;;;;;;5049972;28;20136;-10
2022/10/02 05:46:40;;;;;;;2.03;1.60;;;20.00;48.90;;;;;;5050251;28;20547;-10
2022/10/02 05:49:16;;;;;;;2.03;1.67;;;19.90;48.30;;;;;;5049996;28;20132;-10
2022/10/02 05:51:58;;;;;;;2.60;1.75;;;20.00;48.40;;;;;;5050268;28;20102;-10
2022/10/02 05:54:52;;;;;;;2.25;1.60;;;19.90;48.30;;;;;;5049980;28;20490;-10
2022/10/02 05:57:36;;;;;;;2.90;1.77;;;20.00;48.40;;;;;;5050225;28;20455;-10
2022/10/02 06:00:18;;;;;;;1.70;1.30;;;19.90;48.30;;;;;;5050110;28;20072;-10
2022/10/02 06:03:16;;;;;;;2.35;1.70;;;19.90;48.30;;;;;;5049904;28;20136;-10
2022/10/02 06:05:59;;;;;;;1.83;1.45;;;19.90;48.40;;;;;;5050091;28;20505;-11
2022/10/02 06:08:40;;;;;;;1.60;1.35;;;19.90;48.40;;;;;;5048198;28;20482;-10
2022/10/02 06:11:29;;;;;;;3.67;1.87;;;19.90;48.40;;;;;;5049753;28;20139;-10
2022/10/02 06:14:04;;;;;;;2.03;1.40;;;20.00;48.40;;;;;;5049908;28;20064;-10
2022/10/02 06:16:59;;;;;;;2.22;1.70;;;19.90;48.40;;;;;;5049740;28;20482;-10
2022/10/02 06:19:52;;;;;;;2.20;1.42;;;19.90;48.30;;;;;;5049255;28;20414;-10
2022/10/02 06:22:19;;;;;;;1.50;1.33;;;19.90;48.30;;;;;;5049594;28;20202;-10
2022/10/02 06:25:05;;;;;;;2.17;1.33;;;19.90;48.40;;;;;;5049435;28;20057;-10
2022/10/02 06:27:53;;;;;;;2.38;1.50;;;20.00;48.40;;;;;;5049595;28;20057;-11
2022/10/02 06:30:20;;;;;;;3.03;2.00;;;20.00;48.30;;;;;;5049400;28;20056;-10
2022/10/02 06:32:54;;;;;;;2.20;1.50;;;20.00;48.30;;;;;;5117374;28;20049;-10
2022/10/02 06:35:53;;;;;;;1.75;1.33;;;20.00;48.40;;;;;;5049319;28;20189;-10
2022/10/02 06:38:56;;;;;;;1.52;1.23;;;20.00;48.40;;;;;;5049277;28;20052;-10
2022/10/02 06:41:25;;;;;;;2.47;1.70;;;20.00;48.40;;;;;;5049064;28;20051;-10
2022/10/02 06:44:15;;;;;;;2.65;1.58;;;20.00;48.30;;;;;;5048695;28;20056;-10
2022/10/02 06:46:48;;;;;;;1.65;1.50;;;20.00;48.30;;;;;;5049306;28;20419;-10
2022/10/02 06:49:42;;;;;;;2.13;1.60;;;20.00;48.20;;;;;;5049337;28;20053;-10
2022/10/02 06:52:22;;;;;;;1.92;1.45;;;20.00;48.30;;;;;;5049118;28;20053;-10
2022/10/02 06:54:52;;;;;;;2.90;1.52;;;20.00;48.30;;;;;;5049306;28;20135;-10
2022/10/02 06:57:47;;;;;;;2.17;1.52;;;20.00;48.30;;;;;;5048981;28;20076;-10
2022/10/02 07:00:17;;;;;;;2.22;1.67;;;20.00;48.30;;;;;;5049031;28;20053;-10
2022/10/02 07:03:16;;;;;;;2.67;1.55;;;20.00;48.20;;;;;;5049296;28;20053;-10
2022/10/02 07:05:47;;;;;;;1.50;1.20;;;20.00;48.30;;;;;;5048806;28;20105;-10
2022/10/02 07:08:32;;;;;;;;;;;20.00;48.30;;;;;;5049436;28;20049;-10
2022/10/02 07:11:23;;;;;;;2.08;1.30;;;20.00;48.30;;;;;;5048822;28;19917;-10
2022/10/02 07:14:34;;;;;;;2.33;1.40;;;20.00;48.30;;;;;;5048650;28;20088;-10
2022/10/02 07:17:30;;;;;;;1.95;1.70;;;20.10;48.20;;;;;;5069129;28;20048;-10
2022/10/02 07:19:59;;;;;;;2.35;1.30;;;20.10;48.10;;;;;;5071585;28;20056;-10
2022/10/02 07:23:12;;;;;;;3.30;1.33;;;20.10;48.10;;;;;;5057978;28;20056;-11
2022/10/02 07:25:59;;;;;;;2.42;1.30;;;20.30;47.60;;;;;;5052734;28;20053;-10
2022/10/02 07:28:55;;;;;;;3.80;1.65;;;20.40;47.50;;;;;;5051888;28;20056;-10
2022/10/02 07:31:44;;;;;;;2.45;1.50;;;20.50;47.20;;;;;;5051901;28;20100;-10
2022/10/02 07:34:30;;;;;;;1.98;1.52;;;20.40;47.40;;;;;;5052015;28;20049;-10
2022/10/02 07:37:12;;;;;;;2.20;1.38;;;20.30;47.60;;;;;;5051794;28;20064;-10
2022/10/02 07:39:50;;;;;;;1.65;1.30;;;20.20;47.80;;;;;;5051450;28;20076;-10
2022/10/02 07:42:30;;;;;;;1.88;1.58;;;20.20;47.90;;;;;;5051704;28;20059;-10
2022/10/02 07:45:23;;;;;;;1.40;1.30;;;20.10;47.90;;;;;;5051717;28;20053;-10
2022/10/02 07:47:54;;;;;;;2.10;1.30;;;20.10;48.00;;;;;;5051796;28;20055;-10
2022/10/02 07:50:40;;;;;;;1.85;1.35;;;20.10;48.10;;;;;;5051515;28;20056;-10
2022/10/02 07:53:37;;;;;;;1.55;1.40;;;20.10;48.10;;;;;;5051368;28;20098;-10
2022/10/02 07:56:06;;;;;;;1.48;1.38;;;20.10;48.10;;;;;;5051331;28;20501;-10
2022/10/02 07:58:43;;;;;;;1.90;1.48;;;20.10;48.20;;;;;;5051289;28;20049;-10
2022/10/02 08:01:27;;;;;;;2.47;1.50;;;20.10;48.20;;;;;;5051479;28;20057;-10
2022/10/02 08:04:05;;;;;;;1.90;1.13;;;20.10;48.20;;;;;;5051910;28;20132;-10
2022/10/02 08:06:33;;;;;;;2.38;1.33;;;20.10;48.30;;;;;;5051172;28;20502;-11
2022/10/02 08:09:20;;;;;;;1.92;1.23;;;20.10;48.10;;;;;;5051408;28;20045;-10
2022/10/02 08:11:55;;;;;;;2.10;1.30;;;20.10;48.10;;;;;;5051521;28;20060;-10
2022/10/02 08:14:35;;;;;;;1.92;1.17;;;20.20;48.00;;;;;;5051209;28;20196;-10
2022/10/02 08:17:27;;;;;;;2.53;1.70;;;20.20;48.00;;;;;;5050829;28;20056;-11
2022/10/02 08:19:57;;;;;;;1.50;1.40;;;20.20;47.90;;;;;;5050936;28;20057;-10
2022/10/02 08:22:38;;;;;;;1.67;1.45;;;20.30;47.70;;;;;;5051054;28;20048;-10
2022/10/02 08:25:25;;;;;;;1.98;1.45;;;20.40;47.50;;;;;;5051073;28;20164;-10
2022/10/02 08:28:03;;;;;;;1.70;1.27;;;20.50;47.30;;;;;;5051405;28;20048;-11
2022/10/02 08:30:29;;;;;;;3.55;1.80;;;20.50;47.20;;;;;;5049887;28;20057;-10
2022/10/02 08:32:55;;;;;;;1.88;1.40;;;20.50;47.20;;;;;;5051045;28;20052;-10
2022/10/02 08:35:26;;;;;;;1.92;1.50;;;20.40;47.30;;;;;;5051314;28;20147;-10
2022/10/02 08:38:14;;;;;;;1.42;1.00;;;20.30;47.50;;;;;;5051022;28;20094;-10
2022/10/02 08:41:26;;;;;;;2.20;1.48;;;20.20;47.70;;;;;;5051191;28;20053;-10
2022/10/02 08:44:41;;;;;;;2.05;1.30;;;20.20;47.80;;;;;;5050848;28;20049;-10
2022/10/02 08:48:04;;;;;;;1.50;1.30;;;20.20;48.00;;;;;;5050754;28;20101;-10
2022/10/02 08:51:19;;;;;;;2.45;1.58;;;20.10;48.00;;;;;;5071393;28;20052;-10
2022/10/02 08:53:59;;;;;;;1.60;1.30;;;20.10;48.00;;;;;;5071440;28;20568;-10
2022/10/02 08:56:47;;;;;;;2.30;1.70;;;20.10;48.00;;;;;;5050871;28;20491;-10
2022/10/02 08:59:27;;;;;;;1.50;1.20;;;20.10;48.10;;;;;;5050592;28;20137;-10
2022/10/02 09:02:18;;;;;;;1.83;1.27;;;20.10;48.10;;;;;;5050894;28;20105;-10
2022/10/02 09:05:11;;;;;;;2.22;1.45;;;20.10;48.10;;;;;;5050590;28;20106;-10
2022/10/02 09:07:55;;;;;;;2.95;1.67;;;20.10;48.10;;;;;;5050702;28;20061;-10
2022/10/02 09:10:35;;;;;;;1.73;1.40;;;20.10;48.10;;;;;;5050924;28;20053;-10
2022/10/02 09:13:25;;;;;;;2.47;1.30;;;20.10;48.10;;;;;;5050353;28;20056;-10
2022/10/02 09:16:21;;;;;;;1.83;1.33;;;20.10;48.10;;;;;;5050825;28;20139;-10
2022/10/02 09:19:38;;;;;;;1.80;1.20;;;20.10;48.10;;;;;;5050657;28;20078;-10
2022/10/02 09:22:29;;;;;;;2.00;1.30;;;20.10;48.60;;;;;;5050503;28;20056;-10
2022/10/02 09:25:25;;;;;;;2.10;1.58;;;20.20;48.00;;;;;;5050339;28;20052;-10
2022/10/02 09:28:09;;;;;;;2.47;1.30;;;20.20;48.10;;;;;;5050081;28;20144;-10
2022/10/02 09:31:13;;;;;;;1.92;1.30;;;20.10;48.00;;;;;;5050486;28;20071;-10
2022/10/02 09:34:16;;;;;;;2.03;1.38;;;20.20;48.10;;;;;;5050483;28;20053;-10
2022/10/02 09:37:03;;;;;;;1.30;1.10;;;20.20;48.00;;;;;;5049958;28;20498;-10
2022/10/02 09:39:43;;;;;;;1.42;1.30;;;20.20;48.10;;;;;;5049952;28;20112;-10
2022/10/02 09:42:34;;;;;;;2.28;1.33;;;20.10;48.00;;;;;;5050176;28;20136;-10
2022/10/02 09:45:31;;;;;;;1.90;1.05;;;20.10;48.10;;;;;;5050116;28;20045;-10
2022/10/02 09:48:29;;;;;;;1.90;1.25;;;20.20;48.00;;;;;;5049930;28;20139;-10
2022/10/02 09:51:14;;;;;;;1.33;1.23;;;20.20;47.90;;;;;;5050241;28;20251;-10
2022/10/02 09:53:45;;;;;;;2.92;1.63;;;20.20;47.90;;;;;;5049398;28;20065;-10
2022/10/02 09:56:34;;;;;;;1.75;1.33;;;20.20;47.90;;;;;;5031279;28;20479;-10
2022/10/02 09:59:27;;;;;;;1.38;1.20;;;20.20;47.90;;;;;;5049620;28;20049;-10
2022/10/02 10:02:22;;;;;;;2.13;1.30;;;20.20;47.90;;;;;;5050247;28;20052;-10
2022/10/02 10:04:56;;;;;;;1.38;1.27;;;20.20;47.90;;;;;;5050190;28;20135;-10
2022/10/02 10:07:59;;;;;;;1.85;1.30;;;20.20;48.00;;;;;;5049645;28;20053;-10
2022/10/02 10:10:40;;;;;;;1.45;1.10;;;20.20;48.00;;;;;;5050000;28;20106;-10
2022/10/02 10:13:47;;;;;;;1.02;0.93;;;20.20;48.10;;;;;;5049737;28;20049;-10
2022/10/02 10:16:37;;;;;;;1.55;1.25;;;20.10;48.00;;;;;;5049478;28;20132;-11
2022/10/02 10:19:28;;;;;;;1.63;1.10;;;20.20;48.10;;;;;;5049458;28;20072;-10
2022/10/02 10:22:30;;;;;;;2.20;1.17;;;20.10;48.10;;;;;;5049734;28;20417;-10
2022/10/02 10:25:29;;;;;;;1.35;1.25;;;20.10;48.10;;;;;;5049805;28;20048;-10
2022/10/02 10:28:18;;;;;;;1.50;1.30;;;20.20;48.00;;;;;;5049702;28;20139;-10
2022/10/02 10:30:44;;;;;;;1.63;1.40;;;20.20;48.00;;;;;;5049550;28;20072;-11
2022/10/02 10:33:38;;;;;;;1.40;1.17;;;20.20;47.90;;;;;;5049568;28;20506;-10
2022/10/02 10:38:31;;;;;;;1.02;0.90;;;20.20;47.90;;;;;;5048967;28;20511;-10
2022/10/02 10:39:33;;;;;;;1.40;1.27;;;20.30;47.90;;;;;;5049084;28;20057;-11
2022/10/02 10:42:10;;;;;;;1.83;1.45;;;20.30;47.80;;;;;;5049265;28;20473;-10
2022/10/02 10:45:07;;;;;;;2.63;1.50;;;20.30;47.80;;;;;;5049237;28;20135;-10
2022/10/02 10:48:04;;;;;;;1.63;1.40;;;20.30;47.70;;;;;;5049235;28;20064;-10
2022/10/02 10:50:41;;;;;;;1.40;1.23;;;20.30;47.80;;;;;;5049102;28;20101;-10
2022/10/02 10:53:31;;;;;;;1.92;1.60;;;20.20;47.80;;;;;;5049224;28;20088;-10
2022/10/02 10:56:37;;;;;;;2.20;1.50;;;20.20;47.80;;;;;;5052300;28;20413;-10
2022/10/02 10:59:23;;;;;;;1.83;1.27;;;20.30;47.70;;;;;;5051822;28;20052;-10
2022/10/02 11:01:57;;;;;;;1.42;1.20;;;20.30;47.80;;;;;;5052007;28;20511;-10
2022/10/02 11:05:04;;;;;;;2.88;1.48;;;20.30;47.70;;;;;;5052365;28;20502;-10
2022/10/02 11:08:04;;;;;;;3.03;1.60;;;20.30;47.70;;;;;;5051889;28;20125;-10
2022/10/02 11:10:44;;;;;;;2.03;1.27;;;20.30;47.60;;;;;;5051918;28;20053;-10
2022/10/02 11:13:40;;;;;;;1.77;1.10;;;20.40;47.60;;;;;;5051921;28;20330;-10
2022/10/02 11:16:54;;;;;;;1.88;1.30;;;20.40;47.40;;;;;;5051814;28;20098;-10
2022/10/02 11:19:51;;;;;;;1.40;1.30;;;20.50;47.30;;;;;;5065057;28;20047;-10
2022/10/02 11:22:54;;;;;;;1.50;1.25;;;20.60;47.20;;;;;;5052319;28;20101;-10
2022/10/02 11:25:25;;;;;;;1.85;1.30;;;20.60;47.10;;;;;;5051771;28;20490;-10
2022/10/02 11:28:03;;;;;;;;;;;20.60;47.00;;;;;;5052262;28;20109;-10
2022/10/02 11:30:48;;;;;;;1.48;1.17;;;20.70;47.00;;;;;;5051670;28;20353;-10
2022/10/02 11:33:28;;;;;;;1.70;1.10;;;20.70;46.90;;;;;;5051920;28;20085;-10
2022/10/02 11:36:21;;;;;;;1.42;1.20;;;20.70;46.90;;;;;;5051920;28;20104;-10
2022/10/02 11:39:36;;;;;;;1.85;1.20;;;20.70;46.90;;;;;;5051229;28;20132;-10
2022/10/02 11:42:18;;;;;;;2.30;1.30;;;20.70;46.90;;;;;;5054100;28;20056;-10
2022/10/02 11:45:07;;;;;;;1.77;1.10;;;20.80;47.00;;;;;;5051471;28;20064;-10
2022/10/02 11:47:45;;;;;;;1.52;1.33;;;20.80;46.80;;;;;;5051140;28;20057;-10
2022/10/02 11:50:48;;;;;;;1.88;1.42;;;20.80;46.70;;;;;;5051783;28;20053;-10
2022/10/02 11:53:44;;;;;;;2.03;1.25;;;20.80;46.60;;;;;;5051933;28;20052;-10
2022/10/02 11:56:25;;;;;;;1.38;1.20;;;20.80;46.70;;;;;;5051428;28;20049;-10
2022/10/02 11:59:06;;;;;;;1.13;0.90;;;20.90;46.60;;;;;;5051182;28;20049;-10
2022/10/02 12:01:44;;;;;;;1.33;1.20;;;20.90;46.50;;;;;;5051626;28;20304;-10
2022/10/02 12:04:20;;;;;;;1.70;1.20;;;20.90;46.50;;;;;;5051626;28;20060;-10
2022/10/02 12:07:00;;;;;;;1.70;1.13;;;21.00;46.40;;;;;;5051195;28;20057;-10
2022/10/02 12:09:53;;;;;;;1.25;1.00;;;21.00;46.40;;;;;;5051610;28;20060;-10
2022/10/02 12:12:53;;;;;;;1.55;1.13;;;21.00;46.40;;;;;;5051227;28;20057;-10
2022/10/02 12:15:32;;;;;;;1.58;1.00;;;21.00;46.30;;;;;;5051041;28;20509;-10
2022/10/02 12:18:23;;;;;;;1.17;1.08;;;21.00;46.40;;;;;;5051278;28;20071;-10
2022/10/02 12:26:59;;;;;;;1.35;1.20;;;21.00;46.40;;;;;;5050905;28;20056;-10
2022/10/02 12:29:39;;;;;;;1.23;1.13;;;20.90;46.40;;;;;;5050919;28;20052;-10
2022/10/02 12:32:27;;;;;;;2.13;1.35;;;21.00;46.50;;;;;;5051290;28;20048;-10
2022/10/02 12:35:26;;;;;;;1.30;1.20;;;20.90;46.50;;;;;;5051056;28;20057;-10
2022/10/02 12:38:10;;;;;;;2.38;1.27;;;20.90;46.50;;;;;;5050720;28;20226;-10
2022/10/02 12:41:02;;;;;;;1.67;1.23;;;20.90;46.60;;;;;;5051145;28;20056;-10
2022/10/02 12:44:01;;;;;;;2.35;1.35;;;20.90;46.60;;;;;;5050885;28;20040;-10
2022/10/02 12:47:20;;;;;;;1.98;1.10;;;20.80;46.60;;;;;;5051321;28;20371;-10
2022/10/02 12:50:20;;;;;;;2.05;1.02;;;20.90;46.60;;;;;;5051130;28;20057;-10
2022/10/02 12:53:16;;;;;;;1.33;1.08;;;20.90;46.60;;;;;;5051057;28;20053;-10
2022/10/02 12:56:23;;;;;;;2.88;1.38;;;20.90;46.60;;;;;;5050761;28;20055;-10
2022/10/02 12:59:23;;;;;;;1.80;1.20;;;20.90;46.60;;;;;;5050723;28;20084;-10
2022/10/02 13:02:09;;;;;;;1.92;1.17;;;20.80;46.60;;;;;;5050584;28;20048;-10
2022/10/02 13:04:53;;;;;;;1.95;1.20;;;20.80;46.60;;;;;;5050721;28;20052;-10
2022/10/02 13:07:59;;;;;;;1.33;1.10;;;20.80;46.70;;;;;;5050331;28;20522;-10
2022/10/02 13:10:29;;;;;;;2.25;1.30;;;20.80;46.70;;;;;;5050787;28;20102;-11
2022/10/02 13:13:04;;;;;;;1.95;1.35;;;20.80;46.80;;;;;;5050962;28;20073;-10
2022/10/02 13:15:46;;;;;;;1.42;1.10;;;20.80;46.80;;;;;;5050318;28;20063;-10
2022/10/02 13:18:34;;;;;;;1.88;1.20;;;20.80;47.00;;;;;;5050227;28;20388;-10
2022/10/02 13:21:10;;;;;;;2.42;1.30;;;20.70;46.90;;;;;;5051004;28;20049;-10
2022/10/02 13:24:07;;;;;;;2.45;1.27;;;20.70;46.90;;;;;;5050204;28;20144;-10
2022/10/02 13:27:15;;;;;;;1.35;1.20;;;20.70;47.00;;;;;;5050878;28;20064;-10
2022/10/02 13:29:49;;;;;;;1.92;1.30;;;20.70;47.00;;;;;;5050534;28;20098;-10
2022/10/02 13:32:33;;;;;;;1.38;1.20;;;20.60;47.10;;;;;;5050576;28;20041;-10
2022/10/02 13:35:41;;;;;;;1.50;1.10;;;20.60;47.20;;;;;;5050302;28;20049;-10
2022/10/02 13:38:39;;;;;;;1.48;1.10;;;20.60;47.10;;;;;;5050043;28;20048;-10
2022/10/02 13:41:20;;;;;;;1.98;1.20;;;20.60;47.10;;;;;;5050076;28;20061;-10
2022/10/02 13:43:48;;;;;;;1.50;1.20;;;20.70;47.10;;;;;;5049957;28;20125;-10
2022/10/02 13:47:11;;;;;;;1.48;0.98;;;20.70;47.10;;;;;;5049937;28;20436;-10
2022/10/02 13:50:10;;;;;;;0.90;0.80;;;20.60;47.10;;;;;;5070531;28;20052;-10
2022/10/02 13:53:04;;;;;;;1.50;1.10;;;20.60;47.10;;;;;;5070620;28;20052;-10
2022/10/02 13:55:36;;;;;;;2.38;1.15;;;20.60;47.20;;;;;;5052334;28;20075;-11
2022/10/02 13:58:36;;;;;;;1.58;0.93;;;20.60;47.30;;;;;;5049829;28;20049;-10
2022/10/02 14:01:29;;;;;;;1.67;1.23;;;20.60;47.20;;;;;;5058973;28;20056;-10
2022/10/02 14:04:42;;;;;;;1.83;1.10;;;20.60;47.20;;;;;;5049810;28;20391;-10
2022/10/02 14:07:48;;;;;;;1.50;1.00;;;20.60;47.20;;;;;;5050050;28;20136;-10
2022/10/02 14:10:37;;;;;;;2.20;1.00;;;20.60;47.20;;;;;;5055339;28;20045;-10
2022/10/02 14:13:38;;;;;;;1.80;1.25;;;20.60;47.30;;;;;;5049929;28;20093;-10
2022/10/02 14:16:24;;;;;;;1.75;1.00;;;20.50;47.40;;;;;;5049546;28;20064;-10
2022/10/02 14:19:12;;;;;;;1.70;1.17;;;20.50;47.50;;;;;;5049591;28;20055;-10
2022/10/02 14:21:59;;;;;;;2.00;1.38;;;20.50;47.50;;;;;;5049398;28;20490;-10
2022/10/02 14:24:59;;;;;;;2.50;1.05;;;20.50;47.50;;;;;;5050056;28;20057;-10